createdAt,value
2022-08-03T00:01:30.288Z,100075.63
2022-08-03T00:03:57.690Z,100073.31
2022-08-03T00:06:24.798Z,100078.00
2022-08-03T00:08:51.871Z,100066.81
2022-08-03T00:11:19.350Z,100066.22
2022-08-03T00:13:46.901Z,100067.63
2022-08-03T00:16:14.173Z,100071.06
2022-08-03T00:18:41.755Z,100071.22
2022-08-03T00:21:09.299Z,100068.97
2022-08-03T00:23:51.936Z,100065.03
2022-08-03T00:26:21.063Z,100069.62
2022-08-03T00:28:48.773Z,100066.34
2022-08-03T00:31:16.196Z,100067.84
2022-08-03T00:33:59.659Z,100067.47
2022-08-03T00:36:30.417Z,100065.22
2022-08-03T00:38:57.917Z,100071.81
2022-08-03T00:41:25.052Z,100078.00
2022-08-03T00:43:52.183Z,100069.75
2022-08-03T00:46:22.266Z,100071.84
2022-08-03T00:48:52.726Z,100078.06
2022-08-03T00:51:20.595Z,100073.31
2022-08-03T00:53:48.013Z,100077.66
2022-08-03T00:56:16.169Z,100075.56
2022-08-03T00:58:46.939Z,100083.06
2022-08-03T01:01:14.921Z,100082.06
2022-08-03T01:03:42.389Z,100092.38
2022-08-03T01:06:12.941Z,100084.25
2022-08-03T01:09:11.320Z,100083.75
2022-08-03T01:11:59.844Z,100087.59
2022-08-03T01:14:41.916Z,100086.91
2022-08-03T01:17:22.634Z,100082.75
2022-08-03T01:20:08.581Z,100082.50
2022-08-03T01:23:11.752Z,100079.44
2022-08-03T01:25:54.460Z,100083.59
2022-08-03T01:28:43.544Z,100079.88
2022-08-03T01:31:11.671Z,100081.31
2022-08-03T01:33:53.367Z,100091.47
2022-08-03T01:36:23.548Z,100086.28
2022-08-03T01:38:58.097Z,100088.59
2022-08-03T01:41:29.463Z,100080.72
2022-08-03T01:44:29.736Z,100087.75
2022-08-03T01:46:49.220Z,100086.09
2022-08-03T01:49:17.629Z,100085.06
2022-08-03T01:52:02.820Z,100087.81
2022-08-03T01:54:43.615Z,100082.88
2022-08-03T01:57:11.318Z,100083.12
2022-08-03T01:59:39.462Z,100075.25
2022-08-03T02:02:15.995Z,100083.12
2022-08-03T02:04:57.810Z,100085.16
2022-08-03T02:07:26.150Z,100089.06
2022-08-03T02:09:54.642Z,100091.94
2022-08-03T02:12:24.639Z,100088.25
2022-08-03T02:14:56.548Z,100090.28
2022-08-03T02:17:38.665Z,100087.22
2022-08-03T02:20:12.249Z,100098.16
2022-08-03T02:22:41.067Z,100090.50
2022-08-03T02:25:12.508Z,100091.72
2022-08-03T02:27:45.760Z,100087.38
2022-08-03T02:30:14.222Z,100088.19
2022-08-03T02:32:44.703Z,100086.53
2022-08-03T02:35:13.889Z,100088.19
2022-08-03T02:37:45.072Z,100088.81
2022-08-03T02:40:18.542Z,100088.00
2022-08-03T02:42:47.080Z,100079.38
2022-08-03T02:45:15.658Z,100097.94
2022-08-03T02:47:54.231Z,100091.13
2022-08-03T02:50:23.340Z,100089.06
2022-08-03T02:52:52.193Z,100096.53
2022-08-03T02:55:21.277Z,100092.38
2022-08-03T02:57:49.075Z,100090.34
2022-08-03T03:00:27.365Z,100095.50
2022-08-03T03:03:00.978Z,100099.22
2022-08-03T03:05:55.137Z,100094.87
2022-08-03T03:08:20.830Z,100093.22
2022-08-03T03:10:55.697Z,100098.78
2022-08-03T03:13:23.532Z,100087.22
2022-08-03T03:15:52.686Z,100103.31
2022-08-03T03:18:22.906Z,100098.97
2022-08-03T03:20:52.114Z,100096.09
2022-08-03T03:23:22.064Z,100103.34
2022-08-03T03:25:49.628Z,100092.97
2022-08-03T03:28:17.072Z,100091.50
2022-08-03T03:30:44.644Z,100097.50
2022-08-03T03:33:20.541Z,100100.38
2022-08-03T03:35:47.998Z,100097.69
2022-08-03T03:38:15.072Z,100091.72
2022-08-03T03:40:42.152Z,100098.91
2022-08-03T03:43:13.193Z,100098.34
2022-08-03T03:45:43.432Z,100104.34
2022-08-03T03:48:11.088Z,100101.47
2022-08-03T03:50:41.018Z,100097.31
2022-08-03T03:53:12.241Z,100100.63
2022-08-03T03:55:59.086Z,100096.28
2022-08-03T03:58:27.641Z,100101.47
2022-08-03T04:00:55.139Z,100099.41
2022-08-03T04:03:22.598Z,100099.66
2022-08-03T04:06:08.296Z,100104.00
2022-08-03T04:08:54.307Z,100111.84
2022-08-03T04:11:29.202Z,100112.69
2022-08-03T04:14:06.983Z,100113.16
2022-08-03T04:16:41.913Z,100119.75
2022-08-03T04:19:18.518Z,100121.59
2022-08-03T04:21:51.731Z,100127.66
2022-08-03T04:24:20.527Z,100121.06
2022-08-03T04:26:52.769Z,100126.03
2022-08-03T04:29:21.098Z,100129.19
2022-08-03T04:31:48.875Z,100137.69
2022-08-03T04:34:16.378Z,100129.03
2022-08-03T04:36:49.964Z,100143.94
2022-08-03T04:39:25.340Z,100142.75
2022-08-03T04:42:04.296Z,100140.50
2022-08-03T04:44:40.832Z,100143.41
2022-08-03T04:47:09.050Z,100142.34
2022-08-03T04:49:37.710Z,100152.94
2022-08-03T04:52:05.759Z,100146.94
2022-08-03T04:54:40.429Z,100159.41
2022-08-03T04:57:07.639Z,100162.06
2022-08-03T04:59:39.079Z,100153.84
2022-08-03T05:02:08.296Z,100164.81
2022-08-03T05:04:35.471Z,100168.78
2022-08-03T05:07:11.741Z,100169.81
2022-08-03T05:09:52.359Z,100161.94
2022-08-03T05:12:19.986Z,100166.09
2022-08-03T05:14:47.087Z,100161.78
2022-08-03T05:17:14.694Z,100168.59
2022-08-03T05:19:42.106Z,100177.50
2022-08-03T05:22:09.349Z,100178.94
2022-08-03T05:24:36.468Z,100173.91
2022-08-03T05:27:03.934Z,100169.94
2022-08-03T05:29:31.006Z,100173.81
2022-08-03T05:31:58.130Z,100177.88
2022-08-03T05:34:25.535Z,100171.56
2022-08-03T05:36:52.628Z,100180.59
2022-08-03T05:39:19.783Z,100184.00
2022-08-03T05:41:47.195Z,100184.97
2022-08-03T05:44:14.294Z,100185.87
2022-08-03T05:46:41.368Z,100180.72
2022-08-03T05:49:08.760Z,100185.91
2022-08-03T05:51:37.182Z,100181.19
2022-08-03T05:54:04.471Z,100182.91
2022-08-03T05:56:32.385Z,100189.66
2022-08-03T05:59:07.362Z,100185.72
2022-08-03T06:01:46.927Z,100197.00
2022-08-03T06:04:14.360Z,100195.16
2022-08-03T06:06:42.165Z,100183.94
2022-08-03T06:09:10.720Z,100192.13
2022-08-03T06:11:39.232Z,100207.25
2022-08-03T06:14:06.618Z,100193.75
2022-08-03T06:16:33.831Z,100198.56
2022-08-03T06:19:01.442Z,100209.78
2022-08-03T06:21:28.583Z,100209.47
2022-08-03T06:23:55.769Z,100195.69
2022-08-03T06:26:25.158Z,100203.59
2022-08-03T06:28:54.168Z,100202.75
2022-08-03T06:31:24.158Z,100197.34
2022-08-03T06:34:32.324Z,100197.91
2022-08-03T06:36:39.070Z,100198.97
2022-08-03T06:39:06.506Z,100206.84
2022-08-03T06:41:37.534Z,100207.63
2022-08-03T06:44:10.422Z,100206.75
2022-08-03T06:46:37.640Z,100216.03
2022-08-03T06:49:04.875Z,100212.78
2022-08-03T06:52:05.801Z,100213.09
2022-08-03T06:54:19.981Z,100213.00
2022-08-03T06:56:47.405Z,100218.94
2022-08-03T07:00:10.769Z,100214.03
2022-08-03T07:02:01.887Z,100214.53
2022-08-03T07:04:28.981Z,100214.69
2022-08-03T07:06:56.111Z,100212.53
2022-08-03T07:09:23.907Z,100213.34
2022-08-03T07:11:51.070Z,100206.50
2022-08-03T07:14:18.361Z,100204.50
2022-08-03T07:16:45.756Z,100211.16
2022-08-03T07:19:12.882Z,100213.75
2022-08-03T07:21:39.987Z,100213.34
2022-08-03T07:24:07.506Z,100212.91
2022-08-03T07:26:34.580Z,100215.50
2022-08-03T07:29:01.686Z,100208.28
2022-08-03T07:31:29.080Z,100217.44
2022-08-03T07:34:01.708Z,100202.81
2022-08-03T07:36:29.171Z,100214.38
2022-08-03T07:38:58.187Z,100209.56
2022-08-03T07:41:25.279Z,100204.31
2022-08-03T07:43:52.680Z,100210.13
2022-08-03T07:46:19.776Z,100204.28
2022-08-03T07:48:46.890Z,100214.47
2022-08-03T07:51:14.273Z,100213.47
2022-08-03T07:53:45.970Z,100203.19
2022-08-03T07:56:14.882Z,100207.94
2022-08-03T07:58:42.003Z,100208.69
2022-08-03T08:01:09.285Z,100216.31
2022-08-03T08:03:41.152Z,100207.94
2022-08-03T08:06:21.533Z,100205.28
2022-08-03T08:08:48.902Z,100212.72
2022-08-03T08:11:16.029Z,100209.25
2022-08-03T08:13:43.265Z,100200.25
2022-08-03T08:16:10.649Z,100207.69
2022-08-03T08:18:37.731Z,100203.37
2022-08-03T08:21:04.940Z,100208.56
2022-08-03T08:23:41.899Z,100204.75
2022-08-03T08:26:11.018Z,100207.81
2022-08-03T08:28:38.784Z,100207.28
2022-08-03T08:31:06.020Z,100207.56
2022-08-03T08:34:02.788Z,100213.03
2022-08-03T08:36:22.157Z,100204.28
2022-08-03T08:38:49.255Z,100204.56
2022-08-03T08:41:16.521Z,100199.38
2022-08-03T08:43:44.018Z,100205.38
2022-08-03T08:46:19.203Z,100198.81
2022-08-03T08:48:52.638Z,100193.34
2022-08-03T08:51:21.108Z,100196.63
2022-08-03T08:53:52.718Z,100200.19
2022-08-03T08:56:20.663Z,100212.75
2022-08-03T08:58:52.006Z,100195.81
2022-08-03T09:01:20.397Z,100196.63
2022-08-03T09:03:48.148Z,100197.19
2022-08-03T09:06:15.676Z,100197.47
2022-08-03T09:08:43.629Z,100186.81
2022-08-03T09:11:12.282Z,100195.56
2022-08-03T09:13:39.510Z,100186.28
2022-08-03T09:16:21.049Z,100191.44
2022-08-03T09:18:50.243Z,100181.91
2022-08-03T09:21:32.197Z,100184.91
2022-08-03T09:24:05.702Z,100181.09
2022-08-03T09:26:36.402Z,100181.62
2022-08-03T09:29:14.326Z,100190.34
2022-08-03T09:31:45.834Z,100186.22
2022-08-03T09:34:15.456Z,100175.00
2022-08-03T09:36:53.985Z,100168.72
2022-08-03T09:39:40.391Z,100173.91
2022-08-03T09:42:14.803Z,100171.44
2022-08-03T09:44:44.441Z,100165.16
2022-08-03T09:47:13.627Z,100171.72
2022-08-03T09:49:44.826Z,100167.06
2022-08-03T09:52:32.647Z,100162.41
2022-08-03T09:56:33.220Z,100155.59
2022-08-03T09:58:09.201Z,100155.59
2022-08-03T10:00:59.835Z,100158.06
2022-08-03T10:03:29.929Z,100157.75
2022-08-03T10:05:59.803Z,100159.31
2022-08-03T10:08:27.627Z,100151.38
2022-08-03T10:10:54.756Z,100152.47
2022-08-03T10:13:23.244Z,100156.59
2022-08-03T10:16:22.719Z,100151.09
2022-08-03T10:18:38.370Z,100143.34
2022-08-03T10:21:10.779Z,100143.22
2022-08-03T10:23:39.838Z,100145.91
2022-08-03T10:26:07.923Z,100141.53
2022-08-03T10:28:42.813Z,100134.72
2022-08-03T10:31:13.962Z,100133.91
2022-08-03T10:33:51.591Z,100130.28
2022-08-03T10:36:24.638Z,100129.94
2022-08-03T10:38:53.360Z,100140.75
2022-08-03T10:41:27.160Z,100130.31
2022-08-03T10:44:03.844Z,100130.47
2022-08-03T10:46:33.797Z,100126.91
2022-08-03T10:49:01.087Z,100117.84
2022-08-03T10:51:32.064Z,100115.81
2022-08-03T10:54:01.554Z,100113.62
2022-08-03T10:56:50.894Z,100111.91
2022-08-03T10:59:27.780Z,100102.41
2022-08-03T11:02:00.241Z,100104.69
2022-08-03T11:04:30.006Z,100093.78
2022-08-03T11:07:17.471Z,100094.03
2022-08-03T11:09:49.610Z,100095.34
2022-08-03T11:12:29.994Z,100096.16
2022-08-03T11:15:05.433Z,100092.22
2022-08-03T11:17:46.773Z,100078.16
2022-08-03T11:20:44.140Z,100083.84
2022-08-03T11:23:11.406Z,100082.91
2022-08-03T11:26:14.108Z,100068.69
2022-08-03T11:28:42.746Z,100078.53
2022-08-03T11:31:46.897Z,100071.56
2022-08-03T11:34:10.956Z,100076.91
2022-08-03T11:37:16.580Z,100068.44
2022-08-03T11:39:46.554Z,100078.22
2022-08-03T11:42:34.176Z,100067.03
2022-08-03T11:45:01.282Z,100065.69
2022-08-03T11:47:29.971Z,100068.88
2022-08-03T11:50:00.649Z,100064.66
2022-08-03T11:52:28.994Z,100058.09
2022-08-03T11:54:57.322Z,100058.97
2022-08-03T11:59:01.120Z,100056.88
2022-08-03T12:00:32.490Z,100066.75
2022-08-03T12:03:08.777Z,100055.31
2022-08-03T12:05:39.790Z,100066.63
2022-08-03T12:08:09.459Z,100051.00
2022-08-03T12:10:37.363Z,100052.56
2022-08-03T12:14:44.672Z,100037.28
2022-08-03T12:15:59.201Z,100045.25
2022-08-03T12:18:26.863Z,100037.75
2022-08-03T12:21:04.533Z,100039.12
2022-08-03T12:23:34.870Z,100043.22
2022-08-03T12:26:10.020Z,100043.84
2022-08-03T12:28:38.518Z,100038.03
2022-08-03T12:31:07.801Z,100025.06
2022-08-03T12:34:02.846Z,100025.03
2022-08-03T12:36:32.272Z,100025.72
2022-08-03T12:39:08.166Z,100020.50
2022-08-03T12:41:39.092Z,100010.66
2022-08-03T12:44:07.447Z,100020.09
2022-08-03T12:46:36.826Z,100010.56
2022-08-03T12:49:06.994Z,100016.13
2022-08-03T12:51:57.387Z,100003.59
2022-08-03T12:54:31.682Z,100021.13
2022-08-03T12:57:04.730Z,100015.03
2022-08-03T12:59:35.488Z,100009.00
2022-08-03T13:02:16.301Z,100019.06
2022-08-03T13:04:46.415Z,100008.97
2022-08-03T13:07:14.666Z,100005.44
2022-08-03T13:09:44.637Z,100011.91
2022-08-03T13:12:17.179Z,100008.41
2022-08-03T13:14:46.443Z,100004.09
2022-08-03T13:17:14.245Z,100002.31
2022-08-03T13:19:41.336Z,99995.22
2022-08-03T13:22:12.646Z,100005.09
2022-08-03T13:24:40.343Z,100000.16
2022-08-03T13:28:02.454Z,99980.50
2022-08-03T13:29:55.611Z,99983.09
2022-08-03T13:32:23.375Z,99985.19
2022-08-03T13:34:50.528Z,99985.06
2022-08-03T13:37:17.959Z,99977.22
2022-08-03T13:39:58.108Z,99978.94
2022-08-03T13:42:32.022Z,99979.75
2022-08-03T13:45:00.419Z,99977.13
2022-08-03T13:47:28.179Z,99974.59
2022-08-03T13:50:01.403Z,99967.59
2022-08-03T13:52:34.344Z,99971.16
2022-08-03T13:55:02.874Z,99960.00
2022-08-03T13:58:02.452Z,99964.38
2022-08-03T14:00:26.244Z,99954.53
2022-08-03T14:03:02.892Z,99950.78
2022-08-03T14:05:33.286Z,99951.34
2022-08-03T14:08:03.922Z,99949.16
2022-08-03T14:10:31.997Z,99945.75
2022-08-03T14:13:00.481Z,99942.38
2022-08-03T14:15:28.800Z,99944.16
2022-08-03T14:17:58.780Z,99940.03
2022-08-03T14:20:38.926Z,99937.78
2022-08-03T14:23:15.205Z,99936.28
2022-08-03T14:25:44.473Z,99935.34
2022-08-03T14:28:23.057Z,99940.34
2022-08-03T14:30:51.558Z,99940.47
2022-08-03T14:33:19.168Z,99940.31
2022-08-03T14:35:46.642Z,99930.06
2022-08-03T14:38:14.005Z,99930.41
2022-08-03T14:40:41.527Z,99929.56
2022-08-03T14:43:09.585Z,99934.03
2022-08-03T14:45:36.712Z,99928.00
2022-08-03T14:50:31.857Z,99927.84
2022-08-03T14:50:56.685Z,99928.28
2022-08-03T14:53:24.135Z,99916.59
2022-08-03T14:55:52.898Z,99913.75
2022-08-03T14:58:22.327Z,99908.03
2022-08-03T15:00:51.621Z,99915.72
2022-08-03T15:03:23.119Z,99917.03
2022-08-03T15:05:57.385Z,99912.31
2022-08-03T15:08:25.705Z,99912.47
2022-08-03T15:10:54.415Z,99919.00
2022-08-03T15:13:21.974Z,99913.28
2022-08-03T15:15:49.829Z,99913.62
2022-08-03T15:18:17.528Z,99912.88
2022-08-03T15:20:46.270Z,99914.69
2022-08-03T15:23:14.941Z,99913.53
2022-08-03T15:26:04.195Z,99904.44
2022-08-03T15:28:31.035Z,99913.88
2022-08-03T15:30:58.687Z,99908.34
2022-08-03T15:33:25.777Z,99900.72
2022-08-03T15:35:53.391Z,99900.09
2022-08-03T15:38:26.257Z,99908.31
2022-08-03T15:40:54.837Z,99912.81
2022-08-03T15:43:23.668Z,99900.59
2022-08-03T15:46:19.189Z,99899.41
2022-08-03T15:48:38.639Z,99908.09
2022-08-03T15:51:06.019Z,99906.06
2022-08-03T15:53:33.702Z,99899.38
2022-08-03T15:56:05.257Z,99905.69
2022-08-03T15:59:03.268Z,99908.44
2022-08-03T16:01:25.438Z,99906.84
2022-08-03T16:03:52.892Z,99898.38
2022-08-03T16:06:35.223Z,99903.56
2022-08-03T16:09:23.460Z,99900.88
2022-08-03T16:11:53.738Z,99896.81
2022-08-03T16:14:32.008Z,99899.78
2022-08-03T16:17:03.728Z,99894.69
2022-08-03T16:19:31.231Z,99896.19
2022-08-03T16:21:58.446Z,99894.50
2022-08-03T16:24:27.761Z,99893.22
2022-08-03T16:26:56.657Z,99896.63
2022-08-03T16:29:24.177Z,99893.22
2022-08-03T16:31:52.449Z,99896.84
2022-08-03T16:34:21.076Z,99892.25
2022-08-03T16:36:48.209Z,99888.03
2022-08-03T16:39:15.538Z,99886.78
2022-08-03T16:41:54.564Z,99894.34
2022-08-03T16:44:30.606Z,99896.13
2022-08-03T16:46:59.434Z,99899.06
2022-08-03T16:49:54.161Z,99892.38
2022-08-03T16:52:14.193Z,99900.16
2022-08-03T16:54:44.470Z,99900.84
2022-08-03T16:57:56.550Z,99891.44
2022-08-03T17:00:11.972Z,99894.31
2022-08-03T17:02:48.052Z,99902.87
2022-08-03T17:05:15.576Z,99899.66
2022-08-03T17:07:46.939Z,99903.50
2022-08-03T17:10:21.947Z,99909.53
2022-08-03T17:12:55.084Z,99906.31
2022-08-03T17:15:38.504Z,99913.72
2022-08-03T17:18:12.479Z,99915.13
2022-08-03T17:20:42.577Z,99915.09
2022-08-03T17:23:34.479Z,99917.00
2022-08-03T17:26:08.913Z,99914.56
2022-08-03T17:28:52.000Z,99921.38
2022-08-03T17:31:31.409Z,99919.75
2022-08-03T17:34:04.466Z,99921.38
2022-08-03T17:37:02.006Z,99923.47
2022-08-03T17:39:36.167Z,99925.09
2022-08-03T17:42:29.227Z,99934.34
2022-08-03T17:44:57.847Z,99928.28
2022-08-03T17:47:29.170Z,99935.06
2022-08-03T17:50:24.855Z,99934.19
2022-08-03T17:53:14.416Z,99939.06
2022-08-03T17:55:57.600Z,99927.56
2022-08-03T17:58:41.247Z,99921.53
2022-08-03T18:01:58.464Z,99932.87
2022-08-03T18:04:29.731Z,99927.66
2022-08-03T18:06:58.553Z,99939.22
2022-08-03T18:10:06.706Z,99928.78
2022-08-03T18:12:30.698Z,99934.69
2022-08-03T18:15:01.208Z,99951.16
2022-08-03T18:17:55.720Z,99937.47
2022-08-03T18:20:34.139Z,99949.31
2022-08-03T18:23:06.319Z,99955.13
2022-08-03T18:25:44.917Z,99950.16
2022-08-03T18:28:18.854Z,99953.03
2022-08-03T18:30:54.622Z,99955.56
2022-08-03T18:34:19.532Z,99952.28
2022-08-03T18:36:17.460Z,99953.47
2022-08-03T18:38:47.506Z,99960.22
2022-08-03T18:41:22.161Z,99961.66
2022-08-03T18:44:09.067Z,99962.59
2022-08-03T18:47:08.054Z,99960.31
2022-08-03T18:49:57.077Z,99967.56
2022-08-03T18:52:31.757Z,99968.47
2022-08-03T18:55:20.013Z,99980.31
2022-08-03T18:57:52.571Z,99969.87
2022-08-03T19:00:24.559Z,99975.12
2022-08-03T19:03:12.524Z,99979.31
2022-08-03T19:06:09.469Z,99988.22
2022-08-03T19:09:04.059Z,99988.38
2022-08-03T19:12:14.280Z,99992.53
2022-08-03T19:14:31.921Z,99983.72
2022-08-03T19:17:09.718Z,99983.56
2022-08-03T19:19:44.489Z,99986.16
2022-08-03T19:22:16.214Z,99990.31
2022-08-03T19:24:45.460Z,99999.16
2022-08-03T19:27:13.297Z,99997.62
2022-08-03T19:30:00.427Z,100003.25
2022-08-03T19:32:30.111Z,100004.47
2022-08-03T19:34:59.804Z,99997.31
2022-08-03T19:40:15.517Z,100010.09
2022-08-03T19:42:54.631Z,100012.47
2022-08-03T19:45:52.679Z,100018.12
2022-08-03T19:48:19.219Z,100013.50
2022-08-03T19:50:53.466Z,100011.41
2022-08-03T19:53:20.858Z,100015.88
2022-08-03T19:55:52.120Z,100019.16
2022-08-03T19:58:28.452Z,100009.87
2022-08-03T20:00:56.242Z,100011.75
2022-08-03T20:03:27.483Z,100016.56
2022-08-03T20:06:12.521Z,100013.66
2022-08-03T20:08:44.554Z,100015.19
2022-08-03T20:11:11.765Z,100021.91
2022-08-03T20:13:39.436Z,100018.28
2022-08-03T20:16:06.858Z,100025.09
2022-08-03T20:18:39.420Z,100023.78
2022-08-03T20:21:15.128Z,100017.22
2022-08-03T20:23:45.499Z,100023.00
2022-08-03T20:26:31.228Z,100021.25
2022-08-03T20:29:09.987Z,100021.59
2022-08-03T20:31:37.788Z,100021.69
2022-08-03T20:34:05.933Z,100026.63
2022-08-03T20:36:33.146Z,100020.06
2022-08-03T20:39:00.777Z,100023.81
2022-08-03T20:41:28.083Z,100023.09
2022-08-03T20:43:57.728Z,100016.94
2022-08-03T20:46:32.853Z,100019.87
2022-08-03T20:49:05.253Z,100010.22
2022-08-03T20:51:48.977Z,100025.25
2022-08-03T20:54:22.768Z,100026.31
2022-08-03T20:56:59.693Z,100017.72
2022-08-03T20:59:36.963Z,100020.75
2022-08-03T21:02:19.756Z,100025.66
2022-08-03T21:05:03.621Z,100018.97
2022-08-03T21:08:05.061Z,100020.47
2022-08-03T21:10:37.815Z,100015.88
2022-08-03T21:13:02.595Z,100007.50
2022-08-03T21:13:25.099Z,100019.72
2022-08-03T21:16:04.089Z,100019.38
2022-08-03T21:18:45.830Z,100028.06
2022-08-03T21:21:15.440Z,100027.47
2022-08-03T21:23:48.640Z,100022.78
2022-08-03T21:26:18.074Z,100024.66
2022-08-03T21:28:47.208Z,100024.06
2022-08-03T21:31:23.725Z,100021.03
2022-08-03T21:34:00.715Z,100030.75
2022-08-03T21:36:28.629Z,100025.69
2022-08-03T21:38:57.795Z,100031.16
2022-08-03T21:41:27.591Z,100040.75
2022-08-03T21:43:54.825Z,100038.50
2022-08-03T21:46:22.978Z,100043.53
2022-08-03T21:48:55.684Z,100038.59
2022-08-03T21:51:26.834Z,100050.06
2022-08-03T21:54:04.063Z,100045.97
2022-08-03T21:56:42.666Z,100056.38
2022-08-03T21:59:19.196Z,100051.44
2022-08-03T22:01:55.263Z,100044.81
2022-08-03T22:04:50.266Z,100046.69
2022-08-03T22:07:13.460Z,100047.37
2022-08-03T22:09:51.118Z,100052.38
2022-08-03T22:12:23.833Z,100055.31
2022-08-03T22:14:59.955Z,100053.28
2022-08-03T22:17:54.849Z,100057.19
2022-08-03T22:20:17.050Z,100057.91
2022-08-03T22:22:53.532Z,100058.41
2022-08-03T22:25:29.512Z,100054.47
2022-08-03T22:27:58.929Z,100049.31
2022-08-03T22:30:26.652Z,100059.72
2022-08-03T22:32:56.185Z,100059.94
2022-08-03T22:35:25.434Z,100063.91
2022-08-03T22:37:55.036Z,100065.16
2022-08-03T22:40:22.279Z,100068.06
2022-08-03T22:42:50.580Z,100061.25
2022-08-03T22:46:06.295Z,100069.81
2022-08-03T22:48:08.090Z,100070.25
2022-08-03T22:50:35.727Z,100067.16
2022-08-03T22:53:03.496Z,100063.47
2022-08-03T22:55:31.265Z,100060.81
2022-08-03T22:57:59.031Z,100070.91
2022-08-03T23:00:26.243Z,100062.41
2022-08-03T23:02:54.506Z,100064.56
2022-08-03T23:06:02.273Z,100071.50
2022-08-03T23:08:15.275Z,100067.19
2022-08-03T23:10:46.954Z,100076.53
2022-08-03T23:13:18.256Z,100069.91
2022-08-03T23:15:51.624Z,100069.91
2022-08-03T23:18:20.335Z,100069.09
2022-08-03T23:20:51.430Z,100076.78
2022-08-03T23:23:20.647Z,100078.03
2022-08-03T23:25:50.314Z,100078.25
2022-08-03T23:28:18.365Z,100078.03
2022-08-03T23:30:45.824Z,100072.25
2022-08-03T23:33:16.836Z,100086.34
2022-08-03T23:36:20.204Z,100076.16
2022-08-03T23:38:49.145Z,100078.84
2022-08-03T23:41:17.546Z,100075.13
2022-08-03T23:43:51.888Z,100080.31
2022-08-03T23:46:23.844Z,100079.25
2022-08-03T23:48:51.255Z,100073.66
2022-08-03T23:51:38.650Z,100077.56
2022-08-03T23:54:09.071Z,100081.94
2022-08-03T23:57:08.467Z,100073.12
